KHLB/HLB METAR and TAF weather

Enter ICAO airport designator
Station Type Date Time Source
KHLB METAR 2022/01/26 20:15 UTC NOAA

KHLB 262015Z AUTO 15003KT 10SM CLR M06/M17 A3039 RMK A01


Station Type Date Time Source
KHLB Decoded METAR 2022/01/26 20:15 UTC NOAA

Station name not available
Jan 26, 2022 - 03:15 PM EST / 2022.01.26 2015 UTC
Wind: from the SSE (150 degrees) at 3 MPH (3 KT):0
Visibility: 10 mile(s):0
Sky conditions: clear
Temperature: 21 F (-6 C)
Dew Point: 1 F (-17 C)
Relative Humidity: 41%
Pressure (altimeter): 30.39 in. Hg (1029 hPa)
ob: KHLB 262015Z AUTO 15003KT 10SM CLR M06/M17 A3039 RMK A01
cycle: 20

Station Type Date Time Source
KHLB TAF UTC NOAA

Error!

Example: see airport list